Time;durP1;ratioP1;P1;durP2;ratioP2;P2;SDS_P1;SDS_P2;PMS_P1;PMS_P2;Temp;Humidity;BMP_temperature;BMP_pressure;BME280_temperature;BME280_humidity;BME280_pressure;Samples;Min_cycle;Max_cycle;Signal;HPM_P1;HPM_P2
2023/08/15 00:00:39;;;;;;;3.20;1.30;;;20.40;99.90;;;;;;5010799;28;20029;-77
2023/08/15 00:03:06;;;;;;;2.10;1.30;;;20.40;99.90;;;;;;4997029;28;20455;-74
2023/08/15 00:05:32;;;;;;;3.55;1.63;;;20.40;99.90;;;;;;4983280;28;20072;-74
2023/08/15 00:08:03;;;;;;;3.85;1.40;;;20.40;99.90;;;;;;4995496;28;20033;-76
2023/08/15 00:10:29;;;;;;;4.38;1.95;;;20.40;99.90;;;;;;4996756;28;20039;-76
2023/08/15 00:12:55;;;;;;;4.65;2.05;;;20.40;99.90;;;;;;5015166;28;20032;-76
2023/08/15 00:15:22;;;;;;;3.47;1.58;;;20.30;99.90;;;;;;5009193;28;20923;-75
2023/08/15 00:17:48;;;;;;;3.22;2.00;;;20.30;99.90;;;;;;5012131;28;20358;-75
2023/08/15 00:20:15;;;;;;;4.35;1.67;;;20.30;99.90;;;;;;5013458;28;20055;-75
2023/08/15 00:22:41;;;;;;;3.58;1.73;;;20.30;99.90;;;;;;5011878;28;20403;-76
2023/08/15 00:25:08;;;;;;;3.13;1.80;;;20.20;99.90;;;;;;5008675;28;20028;-75
2023/08/15 00:27:34;;;;;;;2.25;1.27;;;20.20;99.90;;;;;;4999290;28;20029;-73
2023/08/15 00:30:00;;;;;;;3.55;1.77;;;20.20;99.90;;;;;;5035825;28;20039;-75
2023/08/15 00:32:35;;;;;;;3.33;1.73;;;20.10;99.90;;;;;;5003096;28;20056;-73
2023/08/15 00:35:05;;;;;;;2.85;1.77;;;20.10;99.90;;;;;;5001666;28;20480;-74
2023/08/15 00:37:32;;;;;;;3.95;2.00;;;20.10;99.90;;;;;;5018679;28;20037;-74
2023/08/15 00:40:00;;;;;;;3.35;1.52;;;20.10;99.90;;;;;;4994652;28;20040;-74
2023/08/15 00:42:26;;;;;;;2.95;1.83;;;20.10;99.90;;;;;;4994738;28;20407;-74
2023/08/15 00:44:52;;;;;;;3.15;2.05;;;20.00;99.90;;;;;;4995571;28;20844;-74
2023/08/15 00:47:20;;;;;;;4.95;2.40;;;20.00;99.90;;;;;;5010768;28;20044;-74
2023/08/15 00:49:47;;;;;;;5.38;2.35;;;20.00;99.90;;;;;;4980653;28;20408;-73
2023/08/15 00:52:16;;;;;;;2.78;2.13;;;20.00;99.90;;;;;;5010021;28;20037;-73
2023/08/15 00:54:45;;;;;;;4.60;3.03;;;20.00;99.90;;;;;;5010150;28;20033;-75
2023/08/15 00:57:12;;;;;;;4.47;2.38;;;20.00;99.90;;;;;;5011173;28;20063;-74
2023/08/15 00:59:41;;;;;;;3.28;2.20;;;20.00;99.90;;;;;;4994469;28;20041;-73
2023/08/15 01:02:08;;;;;;;5.32;2.28;;;19.90;99.90;;;;;;5012666;28;20032;-73
2023/08/15 01:04:37;;;;;;;5.22;2.03;;;20.00;99.90;;;;;;5014147;28;20032;-74
2023/08/15 01:07:03;;;;;;;5.35;2.95;;;20.00;99.90;;;;;;5019521;28;20037;-74
2023/08/15 01:09:29;;;;;;;4.13;2.50;;;19.90;99.90;;;;;;5000952;28;20036;-74
2023/08/15 01:12:21;;;;;;;3.17;1.90;;;20.00;99.90;;;;;;5014778;28;20036;-73
2023/08/15 01:15:01;;;;;;;2.53;1.88;;;20.00;99.90;;;;;;4992878;28;20037;-73
2023/08/15 01:17:40;;;;;;;4.13;1.90;;;20.00;99.90;;;;;;4991609;28;20380;-74
2023/08/15 01:20:09;;;;;;;5.10;2.40;;;20.00;99.90;;;;;;5006760;28;20042;-73
2023/08/15 01:22:41;;;;;;;3.97;2.60;;;19.90;99.90;;;;;;5009312;28;20040;-74
2023/08/15 01:25:08;;;;;;;3.58;2.60;;;20.00;99.90;;;;;;5006719;28;20044;-73
2023/08/15 01:27:34;;;;;;;3.17;2.30;;;19.90;99.90;;;;;;4989756;28;20033;-74
2023/08/15 01:30:00;;;;;;;4.90;2.55;;;19.90;99.90;;;;;;5004131;28;20048;-75
2023/08/15 01:32:33;;;;;;;4.45;3.20;;;19.90;99.90;;;;;;4997894;28;20040;-73
2023/08/15 01:35:09;;;;;;;3.92;2.55;;;20.00;99.90;;;;;;5011226;28;20439;-74
2023/08/15 01:37:40;;;;;;;3.17;2.50;;;20.00;99.90;;;;;;5026387;28;20494;-74
2023/08/15 01:40:10;;;;;;;4.00;2.30;;;19.90;99.90;;;;;;5002337;28;20033;-73
2023/08/15 01:42:40;;;;;;;3.97;2.50;;;20.00;99.90;;;;;;5019287;28;20033;-75
2023/08/15 01:45:08;;;;;;;3.22;2.88;;;20.00;99.90;;;;;;4991860;28;20509;-74
2023/08/15 01:47:35;;;;;;;4.10;2.60;;;20.00;99.90;;;;;;4987145;28;20503;-75
2023/08/15 01:50:02;;;;;;;3.22;2.38;;;20.10;99.90;;;;;;4993684;28;20081;-73
2023/08/15 01:52:28;;;;;;;4.47;3.00;;;20.10;99.90;;;;;;4993240;28;20048;-74
2023/08/15 01:54:54;;;;;;;4.68;3.05;;;20.10;99.90;;;;;;5011179;28;20036;-74
2023/08/15 01:57:22;;;;;;;4.40;3.17;;;20.10;99.90;;;;;;5007960;28;20049;-74
2023/08/15 01:59:49;;;;;;;3.90;3.05;;;20.10;99.90;;;;;;4992603;28;20787;-74
2023/08/15 02:02:15;;;;;;;6.18;3.17;;;20.10;99.90;;;;;;4995214;28;20033;-75
2023/08/15 02:04:42;;;;;;;4.13;3.03;;;20.10;99.90;;;;;;4983949;28;20599;-73
2023/08/15 02:07:08;;;;;;;4.72;3.10;;;20.10;99.90;;;;;;5012830;28;20435;-74
2023/08/15 02:09:34;;;;;;;5.30;2.65;;;20.20;99.90;;;;;;4997085;28;20053;-73
2023/08/15 02:12:01;;;;;;;5.07;3.08;;;20.20;99.90;;;;;;5011579;28;20037;-74
2023/08/15 02:14:27;;;;;;;5.50;3.17;;;20.20;99.90;;;;;;4994349;28;20040;-75
2023/08/15 02:16:53;;;;;;;3.83;3.15;;;20.20;99.90;;;;;;5016454;28;20498;-74
2023/08/15 02:19:20;;;;;;;3.75;2.88;;;20.30;99.90;;;;;;5005113;28;20517;-74
2023/08/15 02:21:46;;;;;;;3.55;2.30;;;20.20;99.90;;;;;;5021382;28;20029;-73
2023/08/15 02:24:12;;;;;;;6.28;3.25;;;20.30;99.90;;;;;;5004129;28;20032;-74
2023/08/15 02:26:39;;;;;;;4.07;3.35;;;20.20;99.90;;;;;;5021183;28;20060;-74
2023/08/15 02:29:05;;;;;;;5.10;2.85;;;20.30;99.90;;;;;;5010135;28;20048;-73
2023/08/15 02:31:33;;;;;;;5.82;2.75;;;20.30;99.90;;;;;;5010892;28;20038;-73
2023/08/15 02:33:59;;;;;;;3.08;1.98;;;20.30;99.90;;;;;;5014210;28;22772;-74
2023/08/15 02:36:26;;;;;;;6.72;2.67;;;20.20;99.90;;;;;;5006735;28;20041;-74
2023/08/15 02:38:52;;;;;;;4.07;2.40;;;20.20;99.90;;;;;;5013322;28;20029;-74
2023/08/15 02:41:20;;;;;;;6.00;2.83;;;20.20;99.90;;;;;;5011918;28;20040;-74
2023/08/15 02:43:46;;;;;;;3.97;2.00;;;20.20;99.90;;;;;;5014193;28;20049;-74
2023/08/15 02:46:13;;;;;;;4.03;2.22;;;20.20;99.90;;;;;;5013362;28;20048;-74
2023/08/15 02:48:39;;;;;;;3.95;2.78;;;20.20;99.90;;;;;;5026858;28;20044;-73
2023/08/15 02:51:07;;;;;;;5.50;2.47;;;20.10;99.90;;;;;;4997467;28;20044;-73
2023/08/15 02:53:34;;;;;;;3.17;1.90;;;20.10;99.90;;;;;;5023103;28;20036;-74
2023/08/15 02:56:00;;;;;;;4.25;2.35;;;20.10;99.90;;;;;;5003198;28;20025;-75
2023/08/15 02:58:27;;;;;;;3.20;2.30;;;20.10;99.90;;;;;;5000867;28;20029;-73
2023/08/15 03:00:53;;;;;;;2.92;1.75;;;20.00;99.90;;;;;;5007979;28;20037;-74
2023/08/15 03:03:20;;;;;;;3.55;2.40;;;20.00;99.90;;;;;;5019840;28;20087;-74
2023/08/15 03:05:46;;;;;;;4.57;1.98;;;20.00;99.90;;;;;;4983806;28;20444;-74
2023/08/15 03:08:12;;;;;;;5.78;3.10;;;20.00;99.90;;;;;;5012516;28;20032;-74
2023/08/15 03:10:39;;;;;;;4.85;3.30;;;19.90;99.90;;;;;;4995771;28;20033;-73
2023/08/15 03:13:06;;;;;;;3.00;2.22;;;19.90;99.90;;;;;;4996766;28;20530;-74
2023/08/15 03:15:35;;;;;;;3.42;2.08;;;19.80;99.90;;;;;;4994314;28;20045;-74
2023/08/15 03:18:02;;;;;;;2.72;1.73;;;19.80;99.90;;;;;;5014559;28;21141;-75
2023/08/15 03:20:30;;;;;;;3.78;1.60;;;19.80;99.90;;;;;;5012345;28;20033;-74
2023/08/15 03:22:56;;;;;;;3.55;1.92;;;19.80;99.90;;;;;;5014645;28;21632;-74
2023/08/15 03:25:23;;;;;;;5.22;2.03;;;19.70;99.90;;;;;;4995128;28;20503;-74
2023/08/15 03:27:49;;;;;;;4.22;1.75;;;19.70;99.90;;;;;;5000173;28;20032;-75
2023/08/15 03:30:16;;;;;;;4.97;2.60;;;19.70;99.90;;;;;;5022072;28;20404;-74
2023/08/15 03:32:42;;;;;;;5.50;1.95;;;19.70;99.90;;;;;;5018829;28;20029;-74
2023/08/15 03:35:10;;;;;;;4.90;1.90;;;19.70;99.90;;;;;;4989164;28;20613;-74
2023/08/15 03:37:39;;;;;;;4.32;2.45;;;19.70;99.90;;;;;;5019219;28;20490;-73
2023/08/15 03:40:07;;;;;;;6.18;2.80;;;19.60;99.90;;;;;;5029868;28;20041;-72
2023/08/15 03:42:33;;;;;;;3.33;1.65;;;19.60;99.90;;;;;;5006938;28;20916;-76
2023/08/15 03:45:00;;;;;;;2.95;1.70;;;19.50;99.90;;;;;;5010827;28;20025;-75
2023/08/15 03:47:26;;;;;;;6.15;2.03;;;19.50;99.90;;;;;;5013442;28;20288;-74
2023/08/15 03:49:53;;;;;;;4.30;1.33;;;19.40;99.90;;;;;;4996845;28;20032;-74
2023/08/15 03:52:19;;;;;;;5.35;2.70;;;19.40;99.90;;;;;;4996930;28;20403;-74
2023/08/15 03:54:46;;;;;;;4.32;1.95;;;19.30;99.90;;;;;;4993974;28;20388;-74
2023/08/15 03:57:12;;;;;;;3.60;1.23;;;19.30;99.90;;;;;;5011556;28;20067;-74
2023/08/15 03:59:38;;;;;;;3.38;1.60;;;19.20;99.90;;;;;;5012467;28;20029;-73
2023/08/15 04:02:05;;;;;;;4.07;1.70;;;19.20;99.90;;;;;;5013163;28;20043;-74
2023/08/15 04:04:32;;;;;;;4.68;1.60;;;19.10;99.90;;;;;;5017092;28;20029;-74
2023/08/15 04:06:59;;;;;;;3.38;1.23;;;19.00;99.90;;;;;;5018885;28;20026;-75
2023/08/15 04:09:25;;;;;;;5.50;2.28;;;19.00;99.90;;;;;;5019345;28;20037;-74
2023/08/15 04:11:51;;;;;;;4.68;1.90;;;18.90;99.90;;;;;;5021993;28;20033;-74
2023/08/15 04:14:18;;;;;;;5.53;2.28;;;18.90;99.90;;;;;;5020424;28;20032;-74
2023/08/15 04:16:46;;;;;;;5.32;1.42;;;18.80;99.90;;;;;;5012363;28;20368;-73
2023/08/15 04:19:12;;;;;;;2.78;1.65;;;18.70;99.90;;;;;;4998214;28;20723;-73
2023/08/15 04:21:39;;;;;;;4.57;1.98;;;18.70;99.90;;;;;;5012655;28;20032;-74
2023/08/15 04:24:05;;;;;;;5.57;2.38;;;18.60;99.90;;;;;;5013548;28;20242;-74
2023/08/15 04:26:32;;;;;;;4.30;1.55;;;18.60;99.90;;;;;;5013809;28;20299;-74
2023/08/15 04:28:59;;;;;;;4.30;2.47;;;18.50;99.90;;;;;;5011561;28;20051;-74
2023/08/15 04:31:26;;;;;;;5.63;2.85;;;18.50;99.90;;;;;;4996749;28;20037;-73
2023/08/15 04:33:52;;;;;;;4.18;1.60;;;18.40;99.90;;;;;;4994994;28;20060;-74
2023/08/15 04:36:19;;;;;;;4.40;2.10;;;18.40;99.90;;;;;;5011623;28;20665;-73
2023/08/15 04:38:45;;;;;;;3.90;1.90;;;18.40;99.90;;;;;;5008851;28;20036;-74
2023/08/15 04:41:12;;;;;;;5.10;2.08;;;18.40;99.90;;;;;;4997053;28;20029;-75
2023/08/15 04:43:38;;;;;;;4.68;2.10;;;18.30;99.90;;;;;;5004118;28;20025;-74
2023/08/15 04:46:05;;;;;;;4.55;1.90;;;18.30;99.90;;;;;;5005715;28;20040;-74
2023/08/15 04:48:31;;;;;;;4.50;1.60;;;18.30;99.90;;;;;;5002352;28;20041;-74
2023/08/15 04:50:57;;;;;;;4.07;1.50;;;18.20;99.90;;;;;;5013956;28;20056;-74
2023/08/15 04:53:24;;;;;;;5.20;1.70;;;18.20;99.90;;;;;;5015834;28;20033;-75
2023/08/15 04:55:50;;;;;;;4.93;2.63;;;18.20;99.90;;;;;;4994913;28;20029;-74
2023/08/15 04:58:17;;;;;;;3.22;1.63;;;18.10;99.90;;;;;;4997724;28;20504;-73
2023/08/15 05:00:44;;;;;;;4.78;1.70;;;18.10;99.90;;;;;;5006044;28;20584;-73
2023/08/15 05:03:10;;;;;;;4.43;1.95;;;18.10;99.90;;;;;;5010751;28;20427;-73
2023/08/15 05:05:38;;;;;;;6.75;2.20;;;18.10;99.90;;;;;;5010091;28;20387;-74
2023/08/15 05:08:06;;;;;;;6.45;2.20;;;18.10;99.90;;;;;;5008102;28;20391;-73
2023/08/15 05:10:33;;;;;;;8.35;2.50;;;18.10;99.90;;;;;;4991021;28;21759;-73
2023/08/15 05:13:00;;;;;;;7.13;3.00;;;18.10;99.90;;;;;;5008913;28;20040;-73
2023/08/15 05:15:27;;;;;;;3.83;1.70;;;18.10;99.90;;;;;;5005534;28;21059;-73
2023/08/15 05:17:55;;;;;;;4.13;1.70;;;18.10;99.90;;;;;;4992113;28;20344;-73
2023/08/15 05:20:22;;;;;;;3.75;1.98;;;18.10;99.90;;;;;;5003557;28;20040;-75
2023/08/15 05:22:49;;;;;;;3.20;1.38;;;18.10;99.90;;;;;;5021079;28;20064;-73
2023/08/15 05:25:17;;;;;;;6.10;2.75;;;18.10;99.90;;;;;;5015833;28;20451;-75
2023/08/15 05:27:50;;;;;;;6.22;2.00;;;18.10;99.90;;;;;;5001667;28;20375;-73
2023/08/15 05:30:16;;;;;;;8.10;2.80;;;18.10;99.90;;;;;;5014492;28;20074;-76
2023/08/15 05:32:43;;;;;;;6.15;2.20;;;18.00;99.90;;;;;;5011247;28;20487;-76
2023/08/15 05:35:10;;;;;;;6.85;2.72;;;18.10;99.90;;;;;;5007939;28;20034;-76
2023/08/15 05:37:36;;;;;;;4.43;2.05;;;18.20;99.90;;;;;;5010656;28;20367;-74
2023/08/15 05:40:04;;;;;;;6.35;1.88;;;18.20;99.90;;;;;;4987978;28;20039;-76
2023/08/15 05:42:31;;;;;;;7.18;2.85;;;18.30;99.90;;;;;;4977323;28;20037;-77
2023/08/15 05:44:57;;;;;;;4.63;2.78;;;18.40;99.90;;;;;;5005965;28;20743;-74
2023/08/15 05:47:24;;;;;;;12.75;3.88;;;18.40;99.90;;;;;;5008591;28;21436;-73
2023/08/15 05:49:50;;;;;;;5.47;1.80;;;18.50;99.90;;;;;;4989036;28;20400;-74
2023/08/15 05:52:17;;;;;;;5.25;2.20;;;18.60;99.90;;;;;;4975787;28;20041;-74
2023/08/15 05:54:43;;;;;;;5.28;2.17;;;18.70;99.90;;;;;;4994917;28;20028;-73
2023/08/15 05:57:09;;;;;;;6.47;2.35;;;18.90;99.90;;;;;;5017297;28;20041;-75
2023/08/15 05:59:36;;;;;;;5.05;1.75;;;19.10;99.90;;;;;;5016187;28;20685;-75
2023/08/15 06:02:02;;;;;;;4.53;1.42;;;19.30;99.90;;;;;;5019076;28;20029;-76
2023/08/15 06:04:29;;;;;;;7.15;2.28;;;19.50;99.90;;;;;;5016388;28;20044;-76
2023/08/15 06:06:55;;;;;;;9.10;2.33;;;19.70;99.90;;;;;;5014579;28;20041;-73
2023/08/15 06:09:21;;;;;;;6.47;1.92;;;19.80;99.90;;;;;;5011163;28;20048;-75
2023/08/15 06:11:50;;;;;;;5.72;2.15;;;20.00;99.90;;;;;;4978496;28;20384;-73
2023/08/15 06:14:19;;;;;;;5.13;2.65;;;20.10;99.90;;;;;;5011313;28;20037;-76
2023/08/15 06:16:46;;;;;;;6.40;2.45;;;20.10;99.90;;;;;;5012246;28;20045;-75
2023/08/15 06:19:13;;;;;;;5.25;2.03;;;20.20;99.90;;;;;;5013382;28;20044;-75
2023/08/15 06:21:42;;;;;;;5.82;2.10;;;20.40;99.90;;;;;;5010518;28;20036;-75
2023/08/15 06:24:11;;;;;;;5.05;1.60;;;20.50;99.90;;;;;;5011884;28;20032;-75
2023/08/15 06:26:38;;;;;;;5.03;1.80;;;20.60;99.90;;;;;;4992155;28;20047;-73
2023/08/15 06:29:05;;;;;;;5.25;2.78;;;20.60;99.90;;;;;;4990931;28;20052;-72
2023/08/15 06:31:33;;;;;;;7.13;2.47;;;20.60;99.90;;;;;;5008445;28;20045;-75
2023/08/15 06:34:01;;;;;;;4.95;1.65;;;20.60;99.90;;;;;;5015426;28;20044;-75
2023/08/15 06:36:28;;;;;;;6.05;2.15;;;20.80;99.90;;;;;;5006042;28;20055;-74
2023/08/15 06:38:55;;;;;;;7.80;2.15;;;20.90;99.90;;;;;;5005166;28;20540;-75
2023/08/15 06:41:21;;;;;;;6.07;1.60;;;21.00;99.90;;;;;;5019960;28;20036;-75
2023/08/15 06:43:50;;;;;;;6.93;2.10;;;21.30;99.90;;;;;;5004992;28;20025;-75
2023/08/15 06:46:16;;;;;;;7.90;2.47;;;21.60;99.90;;;;;;4995459;28;20045;-74
2023/08/15 06:48:42;;;;;;;5.82;1.70;;;22.00;99.90;;;;;;5011455;28;20425;-76
2023/08/15 06:51:09;;;;;;;8.25;2.33;;;22.20;99.90;;;;;;5010530;28;20037;-73
2023/08/15 06:53:35;;;;;;;7.03;2.08;;;22.30;99.90;;;;;;5008372;28;20025;-73
2023/08/15 06:56:02;;;;;;;6.68;1.90;;;22.30;99.90;;;;;;5009428;28;20452;-76
2023/08/15 06:58:28;;;;;;;7.60;2.38;;;22.20;99.90;;;;;;5007944;28;20029;-73
2023/08/15 07:00:55;;;;;;;7.05;1.38;;;22.10;99.90;;;;;;4992439;28;20040;-73
2023/08/15 07:03:21;;;;;;;3.13;1.20;;;22.20;99.90;;;;;;5007492;28;20704;-74
2023/08/15 07:05:49;;;;;;;5.03;2.42;;;22.40;99.90;;;;;;5020735;28;20045;-73
2023/08/15 07:08:16;;;;;;;7.60;2.35;;;22.70;99.90;;;;;;5009661;28;20714;-73
2023/08/15 07:10:42;;;;;;;6.68;2.75;;;22.90;99.90;;;;;;5003271;28;20056;-72
2023/08/15 07:13:08;;;;;;;5.47;2.17;;;23.10;99.90;;;;;;5024568;28;20041;-73
2023/08/15 07:15:35;;;;;;;4.22;1.27;;;23.20;99.90;;;;;;5025257;28;20037;-76
2023/08/15 07:18:01;;;;;;;7.13;2.28;;;23.20;99.90;;;;;;5022158;28;20063;-73
2023/08/15 07:20:28;;;;;;;6.45;2.45;;;23.30;99.90;;;;;;5021583;28;20067;-75
2023/08/15 07:22:55;;;;;;;7.80;2.50;;;23.20;99.90;;;;;;5013894;28;20510;-73
2023/08/15 07:25:22;;;;;;;5.57;2.17;;;23.30;99.90;;;;;;5013198;28;20578;-72
2023/08/15 07:27:49;;;;;;;5.03;1.80;;;23.40;99.90;;;;;;5014493;28;20037;-76
2023/08/15 07:30:15;;;;;;;5.10;1.27;;;23.50;99.90;;;;;;5012840;28;20033;-76
2023/08/15 07:32:42;;;;;;;4.13;1.90;;;23.60;99.90;;;;;;5013258;28;20086;-75
2023/08/15 07:35:09;;;;;;;4.57;1.17;;;23.70;99.90;;;;;;5014272;28;20042;-75
2023/08/15 07:37:35;;;;;;;5.25;1.95;;;23.70;99.90;;;;;;5009500;28;20033;-73
2023/08/15 07:40:08;;;;;;;25.92;18.38;;;23.50;99.90;;;;;;5009351;28;20048;-76
2023/08/15 07:42:34;;;;;;;11.38;8.07;;;23.50;99.90;;;;;;5024620;28;20422;-72
2023/08/15 07:45:02;;;;;;;10.98;7.05;;;23.50;99.90;;;;;;4995757;28;20513;-76
2023/08/15 07:47:33;;;;;;;12.95;9.65;;;23.50;99.90;;;;;;5010026;28;20472;-72
2023/08/15 07:50:37;;;;;;;9.88;5.40;;;23.50;99.90;;;;;;4993998;28;20053;-75
2023/08/15 07:53:03;;;;;;;9.10;3.35;;;23.60;99.90;;;;;;5017825;28;20047;-73
2023/08/15 07:55:32;;;;;;;5.07;1.85;;;23.60;99.90;;;;;;5001916;28;20393;-74
2023/08/15 07:57:59;;;;;;;3.97;1.15;;;23.60;99.90;;;;;;5019467;28;20033;-76
2023/08/15 08:00:25;;;;;;;5.32;1.63;;;23.60;99.90;;;;;;5014756;28;20041;-73
2023/08/15 08:02:52;;;;;;;7.72;5.40;;;23.70;99.90;;;;;;5010445;28;20041;-75
2023/08/15 08:05:18;;;;;;;8.15;3.47;;;23.70;99.90;;;;;;4977298;28;20041;-73
2023/08/15 08:07:45;;;;;;;14.27;8.55;;;23.80;99.90;;;;;;5006198;28;20462;-74
2023/08/15 08:10:11;;;;;;;6.18;3.30;;;23.70;99.90;;;;;;5008601;28;20044;-72
2023/08/15 08:12:38;;;;;;;8.00;2.50;;;23.60;99.90;;;;;;4991273;28;20053;-75
2023/08/15 08:15:05;;;;;;;6.43;1.65;;;23.60;99.90;;;;;;4990615;28;20430;-73
2023/08/15 08:17:32;;;;;;;8.85;2.60;;;23.40;99.90;;;;;;5006983;28;20499;-74
2023/08/15 08:19:58;;;;;;;5.45;1.52;;;23.50;99.90;;;;;;5006358;28;20041;-73
2023/08/15 08:22:25;;;;;;;6.05;2.30;;;23.70;99.90;;;;;;5006749;28;20037;-75
2023/08/15 08:24:53;;;;;;;5.95;2.72;;;23.90;99.90;;;;;;4992170;28;20666;-72
2023/08/15 08:27:19;;;;;;;7.25;3.65;;;24.20;99.90;;;;;;4989476;28;23497;-75
2023/08/15 08:29:45;;;;;;;5.88;2.00;;;24.60;99.90;;;;;;5013046;28;20045;-75
2023/08/15 08:32:12;;;;;;;5.80;1.60;;;24.80;99.90;;;;;;5019555;28;20495;-74
2023/08/15 08:34:38;;;;;;;5.07;1.75;;;25.00;99.90;;;;;;5017500;28;20072;-75
2023/08/15 08:37:05;;;;;;;7.95;2.85;;;25.20;99.90;;;;;;5003423;28;20270;-76
2023/08/15 08:39:31;;;;;;;19.73;12.68;;;25.40;99.90;;;;;;5015067;28;20040;-73
2023/08/15 08:41:58;;;;;;;15.73;11.10;;;25.60;99.90;;;;;;4991982;28;20033;-74
2023/08/15 08:44:26;;;;;;;11.60;6.60;;;25.60;99.90;;;;;;5009667;28;20229;-74
2023/08/15 08:46:52;;;;;;;5.75;2.65;;;25.70;99.90;;;;;;5008701;28;20322;-72
2023/08/15 08:49:20;;;;;;;5.82;1.70;;;25.80;99.90;;;;;;4990807;28;20034;-73
2023/08/15 08:51:48;;;;;;;5.28;1.65;;;25.90;99.90;;;;;;5010285;28;20399;-74
2023/08/15 08:54:15;;;;;;;4.80;1.65;;;26.00;99.90;;;;;;5009122;28;20575;-72
2023/08/15 08:56:44;;;;;;;4.75;1.38;;;26.00;99.90;;;;;;4968961;28;20064;-75
2023/08/15 08:59:12;;;;;;;6.05;1.35;;;25.90;99.90;;;;;;5006056;28;20503;-75
2023/08/15 09:01:39;;;;;;;16.98;14.48;;;25.80;99.90;;;;;;4993698;28;20033;-75
2023/08/15 09:04:06;;;;;;;7.80;5.95;;;25.80;99.90;;;;;;4990255;28;20484;-73
2023/08/15 09:06:32;;;;;;;16.65;15.00;;;25.70;99.90;;;;;;5010937;28;20248;-74
2023/08/15 09:08:59;;;;;;;7.63;5.05;;;25.60;99.90;;;;;;5017086;28;20605;-75
2023/08/15 09:11:36;;;;;;;7.60;3.05;;;25.50;99.90;;;;;;5003722;28;20371;-75
2023/08/15 09:14:05;;;;;;;3.90;1.25;;;25.40;99.90;;;;;;4998323;28;20040;-74
2023/08/15 09:16:32;;;;;;;5.20;1.65;;;25.40;99.90;;;;;;5017893;28;20064;-73
2023/08/15 09:19:03;;;;;;;4.30;1.00;;;25.30;99.90;;;;;;5009518;28;20403;-73
2023/08/15 09:21:29;;;;;;;8.63;1.52;;;25.30;99.90;;;;;;5009793;28;20037;-75
2023/08/15 09:23:59;;;;;;;6.00;1.23;;;25.40;99.90;;;;;;5008130;28;20036;-75
2023/08/15 09:26:25;;;;;;;2.35;0.80;;;25.60;99.90;;;;;;5005716;28;20049;-74
2023/08/15 09:28:52;;;;;;;6.05;1.20;;;25.90;99.90;;;;;;5025013;28;20041;-74
2023/08/15 09:31:18;;;;;;;4.38;1.02;;;26.10;99.90;;;;;;5010284;28;20052;-75
2023/08/15 09:33:45;;;;;;;3.95;0.93;;;26.10;99.90;;;;;;5009000;28;20033;-75
2023/08/15 09:36:11;;;;;;;7.15;2.05;;;26.00;99.90;;;;;;5010901;28;20033;-75
2023/08/15 09:38:39;;;;;;;15.70;7.90;;;25.90;99.90;;;;;;5009093;28;20032;-75
2023/08/15 09:41:09;;;;;;;9.15;4.53;;;25.80;99.90;;;;;;5021289;28;20025;-75
2023/08/15 09:43:35;;;;;;;12.05;6.43;;;25.70;99.90;;;;;;4975597;28;20048;-73
2023/08/15 09:46:05;;;;;;;7.07;4.15;;;25.80;99.90;;;;;;5011011;28;20033;-72
2023/08/15 09:48:31;;;;;;;6.40;1.88;;;26.00;99.90;;;;;;5017729;28;20395;-76
2023/08/15 09:51:00;;;;;;;3.05;1.33;;;26.10;99.90;;;;;;4988424;28;20305;-72
2023/08/15 09:53:26;;;;;;;4.65;1.08;;;26.30;99.90;;;;;;5019981;28;20586;-76
2023/08/15 09:55:53;;;;;;;7.97;5.10;;;26.40;99.90;;;;;;5007975;28;20033;-75
2023/08/15 09:58:22;;;;;;;8.48;3.13;;;26.50;99.90;;;;;;4986733;28;20040;-75
2023/08/15 10:00:50;;;;;;;15.25;9.85;;;26.60;99.90;;;;;;5012659;28;20041;-76
2023/08/15 10:03:28;;;;;;;8.88;4.00;;;26.80;99.90;;;;;;5014810;28;20032;-75
2023/08/15 10:05:57;;;;;;;5.60;1.85;;;26.90;99.90;;;;;;5014722;28;21531;-76
2023/08/15 10:08:24;;;;;;;2.65;1.00;;;27.00;99.90;;;;;;4998484;28;20040;-75
2023/08/15 10:10:52;;;;;;;3.30;1.08;;;27.00;99.90;;;;;;4977837;28;20039;-76
2023/08/15 10:13:30;;;;;;;4.18;1.15;;;27.10;99.90;;;;;;5014966;28;20392;-73
2023/08/15 10:15:57;;;;;;;5.60;1.50;;;27.10;99.90;;;;;;4997554;28;20032;-75
2023/08/15 10:18:24;;;;;;;6.47;1.30;;;27.20;99.90;;;;;;5014570;28;20439;-75
2023/08/15 10:20:52;;;;;;;4.65;1.10;;;27.30;99.90;;;;;;5013357;28;20492;-76
2023/08/15 10:23:27;;;;;;;3.83;1.00;;;27.30;99.90;;;;;;5016569;28;20040;-73
2023/08/15 10:25:53;;;;;;;5.95;1.70;;;27.40;99.90;;;;;;5017539;28;20029;-74
2023/08/15 10:28:20;;;;;;;4.07;1.27;;;27.30;99.90;;;;;;5006490;28;20036;-76
2023/08/15 10:30:48;;;;;;;6.13;1.83;;;27.20;99.90;;;;;;5027750;28;20040;-72
2023/08/15 10:33:17;;;;;;;4.88;1.45;;;27.20;99.90;;;;;;5017873;28;20851;-75
2023/08/15 10:36:04;;;;;;;4.80;1.73;;;27.10;99.90;;;;;;5018311;28;20026;-73
2023/08/15 10:38:40;;;;;;;5.47;1.85;;;27.00;99.90;;;;;;5013148;28;20041;-74
2023/08/15 10:41:11;;;;;;;4.40;1.25;;;27.20;99.90;;;;;;4994230;28;20143;-74
2023/08/15 10:43:37;;;;;;;4.72;1.50;;;27.40;99.90;;;;;;5013543;28;20048;-74
2023/08/15 10:46:06;;;;;;;5.40;1.45;;;27.70;99.90;;;;;;5013285;28;20388;-75
2023/08/15 10:48:50;;;;;;;4.78;1.40;;;27.80;99.90;;;;;;5009713;28;20364;-75
2023/08/15 10:51:18;;;;;;;6.78;1.90;;;27.80;99.90;;;;;;5012584;28;20044;-75
2023/08/15 10:53:56;;;;;;;7.68;2.78;;;27.80;99.90;;;;;;5010087;28;20025;-75
2023/08/15 10:56:25;;;;;;;5.05;1.73;;;28.00;99.90;;;;;;4991512;28;20041;-73
2023/08/15 10:58:52;;;;;;;4.35;1.20;;;28.00;99.90;;;;;;5012562;28;20462;-74
2023/08/15 11:01:19;;;;;;;8.00;2.03;;;28.10;99.90;;;;;;5012397;28;20068;-74
2023/08/15 11:03:51;;;;;;;5.38;1.02;;;28.20;99.90;;;;;;5013952;28;20430;-75
2023/08/15 11:06:17;;;;;;;4.07;0.93;;;28.50;99.90;;;;;;5023533;28;20048;-75
2023/08/15 11:08:49;;;;;;;7.78;1.92;;;28.80;99.90;;;;;;5021999;28;20036;-75
2023/08/15 11:11:17;;;;;;;3.92;1.40;;;29.10;99.90;;;;;;5019320;28;20036;-75
2023/08/15 11:13:48;;;;;;;41.97;37.13;;;29.10;99.90;;;;;;5005964;28;20047;-73
2023/08/15 11:16:19;;;;;;;41.15;30.10;;;29.30;99.90;;;;;;5017498;28;20029;-74
2023/08/15 11:18:47;;;;;;;16.33;8.75;;;29.80;99.90;;;;;;5012890;28;20037;-72
2023/08/15 11:21:18;;;;;;;10.10;5.18;;;30.40;99.90;;;;;;5011060;28;20041;-74
2023/08/15 11:23:45;;;;;;;6.00;3.45;;;31.10;99.90;;;;;;4994788;28;20487;-75
2023/08/15 11:26:16;;;;;;;5.28;1.65;;;31.50;99.90;;;;;;5012383;28;20391;-75
2023/08/15 11:28:43;;;;;;;4.88;1.55;;;31.80;99.90;;;;;;4981375;28;20455;-73
2023/08/15 11:31:11;;;;;;;4.45;1.48;;;32.00;98.80;;;;;;5010748;28;20044;-74
2023/08/15 11:33:38;;;;;;;4.78;1.42;;;31.90;98.30;;;;;;4995577;28;20032;-72
2023/08/15 11:36:06;;;;;;;4.15;1.10;;;31.80;97.90;;;;;;5011316;28;20372;-74
2023/08/15 11:38:34;;;;;;;4.43;1.13;;;31.90;97.70;;;;;;4995081;28;20048;-74
2023/08/15 11:41:02;;;;;;;5.30;1.50;;;31.80;97.10;;;;;;5013228;28;20032;-73
2023/08/15 11:43:30;;;;;;;5.35;1.50;;;31.50;96.90;;;;;;5011533;28;20033;-75
2023/08/15 11:46:00;;;;;;;5.40;1.38;;;31.60;96.80;;;;;;5014636;28;20375;-75
2023/08/15 11:48:26;;;;;;;4.90;1.48;;;31.80;96.30;;;;;;5004419;28;20029;-80
2023/08/15 11:50:52;;;;;;;4.60;1.20;;;31.90;95.90;;;;;;4989465;28;20052;-75
2023/08/15 11:53:19;;;;;;;4.93;1.48;;;31.90;95.70;;;;;;5022956;28;20083;-74
2023/08/15 11:55:46;;;;;;;4.50;1.48;;;31.60;95.50;;;;;;5003005;28;20040;-75
2023/08/15 11:58:28;;;;;;;3.28;1.25;;;31.00;94.90;;;;;;5012442;28;20573;-75
2023/08/15 12:00:59;;;;;;;5.32;1.48;;;30.40;95.30;;;;;;5012467;28;20541;-73
2023/08/15 12:03:26;;;;;;;3.20;1.37;;;30.00;95.80;;;;;;5006340;28;20041;-75
2023/08/15 12:05:58;;;;;;;5.53;1.65;;;30.00;96.40;;;;;;5011656;28;20025;-75
2023/08/15 12:08:29;;;;;;;4.97;1.63;;;30.50;96.20;;;;;;5008481;28;20399;-75
2023/08/15 12:10:58;;;;;;;3.63;1.38;;;30.60;95.90;;;;;;5010560;28;20025;-75
2023/08/15 12:13:34;;;;;;;5.55;1.92;;;31.00;95.80;;;;;;5011816;28;20383;-75
2023/08/15 12:16:02;;;;;;;3.97;1.63;;;31.60;95.30;;;;;;5008933;28;20912;-74
2023/08/15 12:18:29;;;;;;;4.90;1.10;;;32.30;94.70;;;;;;5013811;28;20032;-75
2023/08/15 12:20:56;;;;;;;4.07;1.48;;;33.10;94.10;;;;;;5012414;28;20033;-73
2023/08/15 12:23:23;;;;;;;6.97;1.83;;;33.80;93.30;;;;;;5036479;28;20413;-74
2023/08/15 12:25:49;;;;;;;4.95;1.73;;;34.40;92.10;;;;;;5016414;28;20033;-74
2023/08/15 12:28:18;;;;;;;5.68;1.98;;;34.80;90.60;;;;;;5020014;28;20024;-75
2023/08/15 12:30:45;;;;;;;4.55;1.60;;;34.60;90.10;;;;;;5032226;28;20037;-75
2023/08/15 12:33:12;;;;;;;5.68;1.27;;;34.50;89.30;;;;;;5000439;28;20036;-75
2023/08/15 12:35:38;;;;;;;3.03;0.90;;;34.10;89.60;;;;;;5013185;28;20029;-75
2023/08/15 12:38:04;;;;;;;3.00;0.90;;;34.10;90.00;;;;;;4992559;28;20052;-73
2023/08/15 12:40:31;;;;;;;3.53;0.95;;;33.80;89.60;;;;;;5009677;28;20068;-74
2023/08/15 12:42:58;;;;;;;5.93;1.30;;;33.30;89.40;;;;;;4976572;28;20045;-72
2023/08/15 12:45:25;;;;;;;7.13;1.55;;;33.10;90.00;;;;;;5008473;28;20032;-73
2023/08/15 12:47:52;;;;;;;4.63;1.20;;;33.80;90.10;;;;;;4985029;28;20040;-72